<?xml version="1.0" encoding="UTF-8" standalone="no" ?>
<gpx xmlns="http://www.topografix.com/GPX/1/1" xmlns:xsi="http://www.w3.org/2001/XMLSchema-instance" xsi:schemaLocation="http://www.topografix.com/GPX/1/1 http://www.topografix.com/GPX/1/1/gpx.xsd" version="1.1" creator="VisuGPX - https://www.visugpx.com">
  <metadata>
    <name>12210683-32 km Jouhet St Pierre de Maillé</name>
  </metadata>
  <trk>
    <name><![CDATA[12210683-32 km Jouhet St Pierre de Maillé]]></name>
    <extensions>
      <line xmlns="http://www.topografix.com/GPX/gpx_style/0/2">
        <color>0000FF</color>
        <width>4</width>
      </line>
    </extensions>
    <trkseg>
      <trkpt lat="46.49078" lon="0.83828">
        <ele>87</ele>
        <time>2021-05-04T13:37:58Z</time>
      </trkpt>
      <trkpt lat="46.49186" lon="0.83829">
        <ele>87</ele>
        <time>2021-05-04T13:39:24Z</time>
      </trkpt>
      <trkpt lat="46.49237" lon="0.83978">
        <ele>89</ele>
        <time>2021-05-04T13:40:56Z</time>
      </trkpt>
      <trkpt lat="46.49444" lon="0.83879">
        <ele>91</ele>
        <time>2021-05-04T13:43:51Z</time>
      </trkpt>
      <trkpt lat="46.49722" lon="0.83762">
        <ele>104</ele>
        <time>2021-05-04T13:47:42Z</time>
      </trkpt>
      <trkpt lat="46.50075" lon="0.8356">
        <ele>113</ele>
        <time>2021-05-04T13:52:46Z</time>
      </trkpt>
      <trkpt lat="46.50261" lon="0.83524">
        <ele>105</ele>
        <time>2021-05-04T13:55:16Z</time>
      </trkpt>
      <trkpt lat="46.50413" lon="0.83585">
        <ele>100</ele>
        <time>2021-05-04T13:57:23Z</time>
      </trkpt>
      <trkpt lat="46.50617" lon="0.83679">
        <ele>96</ele>
        <time>2021-05-04T14:00:14Z</time>
      </trkpt>
      <trkpt lat="46.50748" lon="0.83783">
        <ele>94</ele>
        <time>2021-05-04T14:02:14Z</time>
      </trkpt>
      <trkpt lat="46.50852" lon="0.83886">
        <ele>96</ele>
        <time>2021-05-04T14:03:54Z</time>
      </trkpt>
      <trkpt lat="46.50987" lon="0.84034">
        <ele>94</ele>
        <time>2021-05-04T14:06:10Z</time>
      </trkpt>
      <trkpt lat="46.51007" lon="0.84161">
        <ele>94</ele>
        <time>2021-05-04T14:07:22Z</time>
      </trkpt>
      <trkpt lat="46.51087" lon="0.84161">
        <ele>95</ele>
        <time>2021-05-04T14:08:26Z</time>
      </trkpt>
      <trkpt lat="46.51561" lon="0.84455">
        <ele>87</ele>
        <time>2021-05-04T14:15:18Z</time>
      </trkpt>
      <trkpt lat="46.51592" lon="0.84513">
        <ele>89</ele>
        <time>2021-05-04T14:15:59Z</time>
      </trkpt>
      <trkpt lat="46.51693" lon="0.84558">
        <ele>86</ele>
        <time>2021-05-04T14:17:23Z</time>
      </trkpt>
      <trkpt lat="46.51738" lon="0.84627">
        <ele>87</ele>
        <time>2021-05-04T14:18:16Z</time>
      </trkpt>
      <trkpt lat="46.52026" lon="0.84792">
        <ele>90</ele>
        <time>2021-05-04T14:22:24Z</time>
      </trkpt>
      <trkpt lat="46.52223" lon="0.85015">
        <ele>95</ele>
        <time>2021-05-04T14:25:44Z</time>
      </trkpt>
      <trkpt lat="46.52533" lon="0.85266">
        <ele>89</ele>
        <time>2021-05-04T14:30:28Z</time>
      </trkpt>
      <trkpt lat="46.53212" lon="0.85704">
        <ele>95</ele>
        <time>2021-05-04T14:40:22Z</time>
      </trkpt>
      <trkpt lat="46.53537" lon="0.85798">
        <ele>94</ele>
        <time>2021-05-04T14:44:48Z</time>
      </trkpt>
      <trkpt lat="46.53592" lon="0.85404">
        <ele>91</ele>
        <time>2021-05-04T14:48:29Z</time>
      </trkpt>
      <trkpt lat="46.53331" lon="0.85267">
        <ele>93</ele>
        <time>2021-05-04T14:52:11Z</time>
      </trkpt>
      <trkpt lat="46.53231" lon="0.85163">
        <ele>95</ele>
        <time>2021-05-04T14:53:50Z</time>
      </trkpt>
      <trkpt lat="46.53199" lon="0.85068">
        <ele>99</ele>
        <time>2021-05-04T14:54:48Z</time>
      </trkpt>
      <trkpt lat="46.53131" lon="0.84953">
        <ele>104</ele>
        <time>2021-05-04T14:56:12Z</time>
      </trkpt>
      <trkpt lat="46.53181" lon="0.84217">
        <ele>123</ele>
        <time>2021-05-04T15:02:59Z</time>
      </trkpt>
      <trkpt lat="46.53373" lon="0.84428">
        <ele>119</ele>
        <time>2021-05-04T15:06:12Z</time>
      </trkpt>
      <trkpt lat="46.53418" lon="0.83866">
        <ele>124</ele>
        <time>2021-05-04T15:11:23Z</time>
      </trkpt>
      <trkpt lat="46.53515" lon="0.8357">
        <ele>130</ele>
        <time>2021-05-04T15:14:24Z</time>
      </trkpt>
      <trkpt lat="46.53989" lon="0.83753">
        <ele>128</ele>
        <time>2021-05-04T15:20:57Z</time>
      </trkpt>
      <trkpt lat="46.53985" lon="0.83943">
        <ele>127</ele>
        <time>2021-05-04T15:22:41Z</time>
      </trkpt>
      <trkpt lat="46.54184" lon="0.84213">
        <ele>131</ele>
        <time>2021-05-04T15:26:19Z</time>
      </trkpt>
      <trkpt lat="46.54469" lon="0.84459">
        <ele>125</ele>
        <time>2021-05-04T15:30:45Z</time>
      </trkpt>
      <trkpt lat="46.54467" lon="0.84618">
        <ele>123</ele>
        <time>2021-05-04T15:32:12Z</time>
      </trkpt>
      <trkpt lat="46.54675" lon="0.84666">
        <ele>121</ele>
        <time>2021-05-04T15:35:01Z</time>
      </trkpt>
      <trkpt lat="46.54871" lon="0.84942">
        <ele>120</ele>
        <time>2021-05-04T15:38:39Z</time>
      </trkpt>
      <trkpt lat="46.5501" lon="0.85041">
        <ele>120</ele>
        <time>2021-05-04T15:40:43Z</time>
      </trkpt>
      <trkpt lat="46.55006" lon="0.85415">
        <ele>112</ele>
        <time>2021-05-04T15:44:09Z</time>
      </trkpt>
      <trkpt lat="46.5526" lon="0.85443">
        <ele>117</ele>
        <time>2021-05-04T15:47:33Z</time>
      </trkpt>
      <trkpt lat="46.55558" lon="0.8561">
        <ele>118</ele>
        <time>2021-05-04T15:51:49Z</time>
      </trkpt>
      <trkpt lat="46.55829" lon="0.85787">
        <ele>114</ele>
        <time>2021-05-04T15:55:47Z</time>
      </trkpt>
      <trkpt lat="46.55916" lon="0.85892">
        <ele>113</ele>
        <time>2021-05-04T15:57:17Z</time>
      </trkpt>
      <trkpt lat="46.55858" lon="0.86044">
        <ele>109</ele>
        <time>2021-05-04T15:58:53Z</time>
      </trkpt>
      <trkpt lat="46.55986" lon="0.86185">
        <ele>105</ele>
        <time>2021-05-04T16:01:02Z</time>
      </trkpt>
      <trkpt lat="46.56009" lon="0.86317">
        <ele>100</ele>
        <time>2021-05-04T16:02:16Z</time>
      </trkpt>
      <trkpt lat="46.56126" lon="0.86335">
        <ele>97</ele>
        <time>2021-05-04T16:03:51Z</time>
      </trkpt>
      <trkpt lat="46.56111" lon="0.86485">
        <ele>83</ele>
        <time>2021-05-04T16:05:14Z</time>
      </trkpt>
      <trkpt lat="46.56357" lon="0.86547">
        <ele>83</ele>
        <time>2021-05-04T16:08:34Z</time>
      </trkpt>
      <trkpt lat="46.56554" lon="0.86701">
        <ele>82</ele>
        <time>2021-05-04T16:11:33Z</time>
      </trkpt>
      <trkpt lat="46.56597" lon="0.86797">
        <ele>80</ele>
        <time>2021-05-04T16:12:36Z</time>
      </trkpt>
      <trkpt lat="46.56696" lon="0.86656">
        <ele>84</ele>
        <time>2021-05-04T16:14:27Z</time>
      </trkpt>
      <trkpt lat="46.56785" lon="0.86732">
        <ele>82</ele>
        <time>2021-05-04T16:15:50Z</time>
      </trkpt>
      <trkpt lat="46.56946" lon="0.86778">
        <ele>81</ele>
        <time>2021-05-04T16:18:01Z</time>
      </trkpt>
      <trkpt lat="46.57134" lon="0.86796">
        <ele>81</ele>
        <time>2021-05-04T16:20:32Z</time>
      </trkpt>
      <trkpt lat="46.5727" lon="0.8688">
        <ele>84</ele>
        <time>2021-05-04T16:22:30Z</time>
      </trkpt>
      <trkpt lat="46.57339" lon="0.86955">
        <ele>86</ele>
        <time>2021-05-04T16:23:39Z</time>
      </trkpt>
      <trkpt lat="46.57426" lon="0.87107">
        <ele>77</ele>
        <time>2021-05-04T16:25:28Z</time>
      </trkpt>
      <trkpt lat="46.57483" lon="0.87168">
        <ele>79</ele>
        <time>2021-05-04T16:26:25Z</time>
      </trkpt>
      <trkpt lat="46.57632" lon="0.87251">
        <ele>80</ele>
        <time>2021-05-04T16:28:33Z</time>
      </trkpt>
      <trkpt lat="46.57805" lon="0.87306">
        <ele>83</ele>
        <time>2021-05-04T16:30:54Z</time>
      </trkpt>
      <trkpt lat="46.57841" lon="0.87321">
        <ele>83</ele>
        <time>2021-05-04T16:31:24Z</time>
      </trkpt>
      <trkpt lat="46.57874" lon="0.87364">
        <ele>80</ele>
        <time>2021-05-04T16:32:00Z</time>
      </trkpt>
      <trkpt lat="46.57905" lon="0.87348">
        <ele>81</ele>
        <time>2021-05-04T16:32:26Z</time>
      </trkpt>
      <trkpt lat="46.57916" lon="0.87325">
        <ele>83</ele>
        <time>2021-05-04T16:32:42Z</time>
      </trkpt>
      <trkpt lat="46.57951" lon="0.87329">
        <ele>82</ele>
        <time>2021-05-04T16:33:10Z</time>
      </trkpt>
      <trkpt lat="46.58008" lon="0.87328">
        <ele>82</ele>
        <time>2021-05-04T16:33:55Z</time>
      </trkpt>
      <trkpt lat="46.58097" lon="0.87285">
        <ele>86</ele>
        <time>2021-05-04T16:35:10Z</time>
      </trkpt>
      <trkpt lat="46.58173" lon="0.87291">
        <ele>87</ele>
        <time>2021-05-04T16:36:11Z</time>
      </trkpt>
      <trkpt lat="46.58254" lon="0.87318">
        <ele>84</ele>
        <time>2021-05-04T16:37:18Z</time>
      </trkpt>
      <trkpt lat="46.58325" lon="0.87245">
        <ele>90</ele>
        <time>2021-05-04T16:38:27Z</time>
      </trkpt>
      <trkpt lat="46.58401" lon="0.87216">
        <ele>90</ele>
        <time>2021-05-04T16:39:30Z</time>
      </trkpt>
      <trkpt lat="46.5841" lon="0.87051">
        <ele>95</ele>
        <time>2021-05-04T16:41:01Z</time>
      </trkpt>
      <trkpt lat="46.58366" lon="0.8689">
        <ele>102</ele>
        <time>2021-05-04T16:42:37Z</time>
      </trkpt>
      <trkpt lat="46.58375" lon="0.86723">
        <ele>106</ele>
        <time>2021-05-04T16:44:09Z</time>
      </trkpt>
      <trkpt lat="46.58454" lon="0.86726">
        <ele>107</ele>
        <time>2021-05-04T16:45:12Z</time>
      </trkpt>
      <trkpt lat="46.58613" lon="0.86694">
        <ele>102</ele>
        <time>2021-05-04T16:47:21Z</time>
      </trkpt>
      <trkpt lat="46.58763" lon="0.86681">
        <ele>98</ele>
        <time>2021-05-04T16:49:21Z</time>
      </trkpt>
      <trkpt lat="46.58799" lon="0.86516">
        <ele>104</ele>
        <time>2021-05-04T16:50:56Z</time>
      </trkpt>
      <trkpt lat="46.58867" lon="0.86432">
        <ele>102</ele>
        <time>2021-05-04T16:52:08Z</time>
      </trkpt>
      <trkpt lat="46.58865" lon="0.86253">
        <ele>94</ele>
        <time>2021-05-04T16:53:46Z</time>
      </trkpt>
      <trkpt lat="46.58788" lon="0.8603">
        <ele>97</ele>
        <time>2021-05-04T16:56:04Z</time>
      </trkpt>
      <trkpt lat="46.58863" lon="0.86067">
        <ele>97</ele>
        <time>2021-05-04T16:57:07Z</time>
      </trkpt>
      <trkpt lat="46.58923" lon="0.8603">
        <ele>101</ele>
        <time>2021-05-04T16:57:59Z</time>
      </trkpt>
      <trkpt lat="46.58945" lon="0.85953">
        <ele>102</ele>
        <time>2021-05-04T16:58:45Z</time>
      </trkpt>
      <trkpt lat="46.58935" lon="0.85847">
        <ele>103</ele>
        <time>2021-05-04T16:59:44Z</time>
      </trkpt>
      <trkpt lat="46.58963" lon="0.85816">
        <ele>103</ele>
        <time>2021-05-04T17:00:12Z</time>
      </trkpt>
      <trkpt lat="46.5902" lon="0.85789">
        <ele>103</ele>
        <time>2021-05-04T17:01:00Z</time>
      </trkpt>
      <trkpt lat="46.59102" lon="0.85713">
        <ele>102</ele>
        <time>2021-05-04T17:02:18Z</time>
      </trkpt>
      <trkpt lat="46.59113" lon="0.85667">
        <ele>102</ele>
        <time>2021-05-04T17:02:45Z</time>
      </trkpt>
      <trkpt lat="46.59197" lon="0.85589">
        <ele>104</ele>
        <time>2021-05-04T17:04:05Z</time>
      </trkpt>
      <trkpt lat="46.59275" lon="0.85537">
        <ele>107</ele>
        <time>2021-05-04T17:05:13Z</time>
      </trkpt>
      <trkpt lat="46.59446" lon="0.85473">
        <ele>109</ele>
        <time>2021-05-04T17:07:35Z</time>
      </trkpt>
      <trkpt lat="46.59613" lon="0.85452">
        <ele>115</ele>
        <time>2021-05-04T17:09:49Z</time>
      </trkpt>
      <trkpt lat="46.59706" lon="0.85387">
        <ele>117</ele>
        <time>2021-05-04T17:11:11Z</time>
      </trkpt>
      <trkpt lat="46.59778" lon="0.85258">
        <ele>117</ele>
        <time>2021-05-04T17:12:43Z</time>
      </trkpt>
      <trkpt lat="46.5981" lon="0.85173">
        <ele>119</ele>
        <time>2021-05-04T17:13:36Z</time>
      </trkpt>
      <trkpt lat="46.59918" lon="0.85465">
        <ele>115</ele>
        <time>2021-05-04T17:16:39Z</time>
      </trkpt>
      <trkpt lat="46.59997" lon="0.85572">
        <ele>113</ele>
        <time>2021-05-04T17:18:05Z</time>
      </trkpt>
      <trkpt lat="46.6003" lon="0.85635">
        <ele>112</ele>
        <time>2021-05-04T17:18:49Z</time>
      </trkpt>
      <trkpt lat="46.60059" lon="0.85774">
        <ele>111</ele>
        <time>2021-05-04T17:20:09Z</time>
      </trkpt>
      <trkpt lat="46.60064" lon="0.85945">
        <ele>106</ele>
        <time>2021-05-04T17:21:43Z</time>
      </trkpt>
      <trkpt lat="46.60055" lon="0.86025">
        <ele>96</ele>
        <time>2021-05-04T17:22:27Z</time>
      </trkpt>
      <trkpt lat="46.60088" lon="0.86131">
        <ele>89</ele>
        <time>2021-05-04T17:23:31Z</time>
      </trkpt>
      <trkpt lat="46.60394" lon="0.85884">
        <ele>103</ele>
        <time>2021-05-04T17:28:11Z</time>
      </trkpt>
      <trkpt lat="46.60578" lon="0.85793">
        <ele>109</ele>
        <time>2021-05-04T17:30:47Z</time>
      </trkpt>
      <trkpt lat="46.60623" lon="0.85576">
        <ele>122</ele>
        <time>2021-05-04T17:32:52Z</time>
      </trkpt>
      <trkpt lat="46.6074" lon="0.85266">
        <ele>119</ele>
        <time>2021-05-04T17:36:06Z</time>
      </trkpt>
      <trkpt lat="46.60894" lon="0.85154">
        <ele>116</ele>
        <time>2021-05-04T17:38:24Z</time>
      </trkpt>
      <trkpt lat="46.61168" lon="0.85509">
        <ele>106</ele>
        <time>2021-05-04T17:43:18Z</time>
      </trkpt>
      <trkpt lat="46.61266" lon="0.85553">
        <ele>96</ele>
        <time>2021-05-04T17:44:40Z</time>
      </trkpt>
      <trkpt lat="46.61439" lon="0.85572">
        <ele>88</ele>
        <time>2021-05-04T17:46:59Z</time>
      </trkpt>
      <trkpt lat="46.61462" lon="0.85526">
        <ele>90</ele>
        <time>2021-05-04T17:47:30Z</time>
      </trkpt>
      <trkpt lat="46.61468" lon="0.85571">
        <ele>88</ele>
        <time>2021-05-04T17:47:55Z</time>
      </trkpt>
      <trkpt lat="46.61496" lon="0.85614">
        <ele>84</ele>
        <time>2021-05-04T17:48:28Z</time>
      </trkpt>
      <trkpt lat="46.61592" lon="0.85669">
        <ele>84</ele>
        <time>2021-05-04T17:49:51Z</time>
      </trkpt>
      <trkpt lat="46.61764" lon="0.85848">
        <ele>82</ele>
        <time>2021-05-04T17:52:40Z</time>
      </trkpt>
      <trkpt lat="46.61785" lon="0.85829">
        <ele>85</ele>
        <time>2021-05-04T17:53:00Z</time>
      </trkpt>
      <trkpt lat="46.6182" lon="0.85844">
        <ele>86</ele>
        <time>2021-05-04T17:53:29Z</time>
      </trkpt>
      <trkpt lat="46.61867" lon="0.85815">
        <ele>88</ele>
        <time>2021-05-04T17:54:10Z</time>
      </trkpt>
      <trkpt lat="46.61964" lon="0.85796">
        <ele>87</ele>
        <time>2021-05-04T17:55:28Z</time>
      </trkpt>
      <trkpt lat="46.62087" lon="0.85747">
        <ele>87</ele>
        <time>2021-05-04T17:57:10Z</time>
      </trkpt>
      <trkpt lat="46.6238" lon="0.85433">
        <ele>87</ele>
        <time>2021-05-04T18:02:01Z</time>
      </trkpt>
      <trkpt lat="46.62553" lon="0.85276">
        <ele>90</ele>
        <time>2021-05-04T18:04:45Z</time>
      </trkpt>
      <trkpt lat="46.62899" lon="0.85175">
        <ele>83</ele>
        <time>2021-05-04T18:09:27Z</time>
      </trkpt>
      <trkpt lat="46.63072" lon="0.85147">
        <ele>85</ele>
        <time>2021-05-04T18:11:47Z</time>
      </trkpt>
      <trkpt lat="46.63325" lon="0.85127">
        <ele>84</ele>
        <time>2021-05-04T18:15:09Z</time>
      </trkpt>
      <trkpt lat="46.63353" lon="0.8509">
        <ele>88</ele>
        <time>2021-05-04T18:15:40Z</time>
      </trkpt>
      <trkpt lat="46.63527" lon="0.85061">
        <ele>78</ele>
        <time>2021-05-04T18:18:00Z</time>
      </trkpt>
      <trkpt lat="46.63628" lon="0.84948">
        <ele>77</ele>
        <time>2021-05-04T18:19:42Z</time>
      </trkpt>
      <trkpt lat="46.63681" lon="0.84912">
        <ele>76</ele>
        <time>2021-05-04T18:20:29Z</time>
      </trkpt>
      <trkpt lat="46.63631" lon="0.84718">
        <ele>85</ele>
        <time>2021-05-04T18:22:23Z</time>
      </trkpt>
      <trkpt lat="46.6365" lon="0.84509">
        <ele>92</ele>
        <time>2021-05-04T18:24:19Z</time>
      </trkpt>
      <trkpt lat="46.63619" lon="0.84434">
        <ele>95</ele>
        <time>2021-05-04T18:25:07Z</time>
      </trkpt>
      <trkpt lat="46.63622" lon="0.84373">
        <ele>96</ele>
        <time>2021-05-04T18:25:40Z</time>
      </trkpt>
      <trkpt lat="46.6373" lon="0.84213">
        <ele>101</ele>
        <time>2021-05-04T18:27:44Z</time>
      </trkpt>
      <trkpt lat="46.638" lon="0.84209">
        <ele>99</ele>
        <time>2021-05-04T18:28:40Z</time>
      </trkpt>
      <trkpt lat="46.63809" lon="0.84174">
        <ele>100</ele>
        <time>2021-05-04T18:29:00Z</time>
      </trkpt>
      <trkpt lat="46.63871" lon="0.84134">
        <ele>96</ele>
        <time>2021-05-04T18:29:55Z</time>
      </trkpt>
      <trkpt lat="46.63941" lon="0.84028">
        <ele>92</ele>
        <time>2021-05-04T18:31:15Z</time>
      </trkpt>
      <trkpt lat="46.64076" lon="0.83799">
        <ele>91</ele>
        <time>2021-05-04T18:34:01Z</time>
      </trkpt>
      <trkpt lat="46.6404" lon="0.83688">
        <ele>94</ele>
        <time>2021-05-04T18:35:09Z</time>
      </trkpt>
      <trkpt lat="46.64245" lon="0.83419">
        <ele>104</ele>
        <time>2021-05-04T18:38:50Z</time>
      </trkpt>
      <trkpt lat="46.64401" lon="0.8347">
        <ele>97</ele>
        <time>2021-05-04T18:40:58Z</time>
      </trkpt>
      <trkpt lat="46.64629" lon="0.83338">
        <ele>95</ele>
        <time>2021-05-04T18:44:14Z</time>
      </trkpt>
      <trkpt lat="46.64701" lon="0.83422">
        <ele>92</ele>
        <time>2021-05-04T18:45:28Z</time>
      </trkpt>
      <trkpt lat="46.64802" lon="0.83382">
        <ele>91</ele>
        <time>2021-05-04T18:46:52Z</time>
      </trkpt>
      <trkpt lat="46.64871" lon="0.83432">
        <ele>88</ele>
        <time>2021-05-04T18:47:54Z</time>
      </trkpt>
      <trkpt lat="46.64918" lon="0.83457">
        <ele>86</ele>
        <time>2021-05-04T18:48:34Z</time>
      </trkpt>
      <trkpt lat="46.64949" lon="0.83453">
        <ele>84</ele>
        <time>2021-05-04T18:48:59Z</time>
      </trkpt>
      <trkpt lat="46.64977" lon="0.83464">
        <ele>81</ele>
        <time>2021-05-04T18:49:22Z</time>
      </trkpt>
      <trkpt lat="46.6498" lon="0.8345">
        <ele>83</ele>
        <time>2021-05-04T18:49:30Z</time>
      </trkpt>
      <trkpt lat="46.64964" lon="0.83128">
        <ele>108</ele>
        <time>2021-05-04T18:52:27Z</time>
      </trkpt>
      <trkpt lat="46.64896" lon="0.8293">
        <ele>109</ele>
        <time>2021-05-04T18:54:29Z</time>
      </trkpt>
      <trkpt lat="46.65017" lon="0.82968">
        <ele>113</ele>
        <time>2021-05-04T18:56:08Z</time>
      </trkpt>
      <trkpt lat="46.65015" lon="0.82847">
        <ele>112</ele>
        <time>2021-05-04T18:57:15Z</time>
      </trkpt>
      <trkpt lat="46.6508" lon="0.82799">
        <ele>112</ele>
        <time>2021-05-04T18:58:13Z</time>
      </trkpt>
      <trkpt lat="46.6514" lon="0.82786">
        <ele>112</ele>
        <time>2021-05-04T18:59:02Z</time>
      </trkpt>
      <trkpt lat="46.65239" lon="0.82865">
        <ele>112</ele>
        <time>2021-05-04T19:00:32Z</time>
      </trkpt>
      <trkpt lat="46.65336" lon="0.82855">
        <ele>112</ele>
        <time>2021-05-04T19:01:50Z</time>
      </trkpt>
      <trkpt lat="46.65371" lon="0.82995">
        <ele>111</ele>
        <time>2021-05-04T19:03:12Z</time>
      </trkpt>
      <trkpt lat="46.65294" lon="0.83209">
        <ele>97</ele>
        <time>2021-05-04T19:05:25Z</time>
      </trkpt>
      <trkpt lat="46.65651" lon="0.8329">
        <ele>87</ele>
        <time>2021-05-04T19:10:14Z</time>
      </trkpt>
      <trkpt lat="46.65785" lon="0.8344">
        <ele>84</ele>
        <time>2021-05-04T19:12:29Z</time>
      </trkpt>
      <trkpt lat="46.65894" lon="0.83499">
        <ele>88</ele>
        <time>2021-05-04T19:14:02Z</time>
      </trkpt>
      <trkpt lat="46.66011" lon="0.83548">
        <ele>83</ele>
        <time>2021-05-04T19:15:40Z</time>
      </trkpt>
      <trkpt lat="46.66127" lon="0.83453">
        <ele>95</ele>
        <time>2021-05-04T19:17:26Z</time>
      </trkpt>
      <trkpt lat="46.66289" lon="0.83324">
        <ele>101</ele>
        <time>2021-05-04T19:19:54Z</time>
      </trkpt>
      <trkpt lat="46.66384" lon="0.83338">
        <ele>90</ele>
        <time>2021-05-04T19:21:10Z</time>
      </trkpt>
      <trkpt lat="46.66455" lon="0.83322">
        <ele>85</ele>
        <time>2021-05-04T19:22:08Z</time>
      </trkpt>
      <trkpt lat="46.66511" lon="0.83374">
        <ele>77</ele>
        <time>2021-05-04T19:23:01Z</time>
      </trkpt>
      <trkpt lat="46.66655" lon="0.8335">
        <ele>76</ele>
        <time>2021-05-04T19:24:57Z</time>
      </trkpt>
      <trkpt lat="46.66659" lon="0.83239">
        <ele>85</ele>
        <time>2021-05-04T19:25:58Z</time>
      </trkpt>
      <trkpt lat="46.6668" lon="0.83084">
        <ele>109</ele>
        <time>2021-05-04T19:27:25Z</time>
      </trkpt>
      <trkpt lat="46.66813" lon="0.83099">
        <ele>106</ele>
        <time>2021-05-04T19:29:12Z</time>
      </trkpt>
      <trkpt lat="46.66952" lon="0.83142">
        <ele>102</ele>
        <time>2021-05-04T19:31:06Z</time>
      </trkpt>
      <trkpt lat="46.67025" lon="0.83111">
        <ele>104</ele>
        <time>2021-05-04T19:32:07Z</time>
      </trkpt>
      <trkpt lat="46.67132" lon="0.83118">
        <ele>107</ele>
        <time>2021-05-04T19:33:32Z</time>
      </trkpt>
      <trkpt lat="46.67189" lon="0.83069">
        <ele>107</ele>
        <time>2021-05-04T19:34:25Z</time>
      </trkpt>
      <trkpt lat="46.67245" lon="0.83064">
        <ele>106</ele>
        <time>2021-05-04T19:35:10Z</time>
      </trkpt>
      <trkpt lat="46.67385" lon="0.83107">
        <ele>105</ele>
        <time>2021-05-04T19:37:05Z</time>
      </trkpt>
      <trkpt lat="46.67407" lon="0.83347">
        <ele>94</ele>
        <time>2021-05-04T19:39:18Z</time>
      </trkpt>
      <trkpt lat="46.67429" lon="0.83461">
        <ele>81</ele>
        <time>2021-05-04T19:40:23Z</time>
      </trkpt>
      <trkpt lat="46.67525" lon="0.83507">
        <ele>85</ele>
        <time>2021-05-04T19:41:44Z</time>
      </trkpt>
      <trkpt lat="46.67588" lon="0.83595">
        <ele>80</ele>
        <time>2021-05-04T19:42:54Z</time>
      </trkpt>
      <trkpt lat="46.67717" lon="0.83659">
        <ele>77</ele>
        <time>2021-05-04T19:44:43Z</time>
      </trkpt>
      <trkpt lat="46.67625" lon="0.83718">
        <ele>70</ele>
        <time>2021-05-04T19:46:03Z</time>
      </trkpt>
      <trkpt lat="46.67945" lon="0.83822">
        <ele>69</ele>
        <time>2021-05-04T19:50:26Z</time>
      </trkpt>
      <trkpt lat="46.67969" lon="0.83706">
        <ele>75</ele>
        <time>2021-05-04T19:51:32Z</time>
      </trkpt>
      <trkpt lat="46.68025" lon="0.8368">
        <ele>80</ele>
        <time>2021-05-04T19:52:19Z</time>
      </trkpt>
      <trkpt lat="46.68051" lon="0.83719">
        <ele>79</ele>
        <time>2021-05-04T19:52:49Z</time>
      </trkpt>
      <trkpt lat="46.6806" lon="0.83763">
        <ele>76</ele>
        <time>2021-05-04T19:53:14Z</time>
      </trkpt>
      <trkpt lat="46.6814" lon="0.83782">
        <ele>82</ele>
        <time>2021-05-04T19:54:19Z</time>
      </trkpt>
      <trkpt lat="46.68185" lon="0.83825">
        <ele>79</ele>
        <time>2021-05-04T19:55:02Z</time>
      </trkpt>
      <trkpt lat="46.6826" lon="0.83829">
        <ele>82</ele>
        <time>2021-05-04T19:56:03Z</time>
      </trkpt>
      <trkpt lat="46.68318" lon="0.83839">
        <ele>83</ele>
        <time>2021-05-04T19:56:49Z</time>
      </trkpt>
    </trkseg>
  </trk>
</gpx>